createdAt,value
2018-11-20T00:02:45.236Z,11.40
2018-11-20T00:08:08.993Z,11.40
2018-11-20T00:13:20.907Z,11.40
2018-11-20T00:18:34.865Z,11.20
2018-11-20T00:23:57.254Z,10.80
2018-11-20T00:29:26.620Z,10.60
2018-11-20T00:34:50.439Z,10.60
2018-11-20T00:40:09.726Z,10.50
2018-11-20T00:45:31.968Z,10.50
2018-11-20T00:51:13.661Z,10.70
2018-11-20T00:56:56.247Z,10.70
2018-11-20T01:02:20.035Z,10.80
2018-11-20T01:07:51.218Z,10.90
2018-11-20T01:13:18.737Z,10.70
2018-11-20T01:18:40.604Z,10.70
2018-11-20T01:24:18.770Z,10.60
2018-11-20T01:29:57.536Z,10.40
2018-11-20T01:35:33.524Z,10.20
2018-11-20T01:40:50.729Z,10.20
2018-11-20T01:46:23.782Z,10.20
2018-11-20T01:52:05.434Z,10.30
2018-11-20T01:57:29.242Z,10.30
2018-11-20T02:02:46.426Z,10.30
2018-11-20T02:08:11.462Z,10.20
2018-11-20T02:14:15.447Z,10.00
2018-11-20T02:19:43.705Z,10.00
2018-11-20T02:25:06.025Z,10.10
2018-11-20T02:30:41.955Z,10.10
2018-11-20T02:36:04.334Z,10.10
2018-11-20T02:41:22.300Z,10.10
2018-11-20T02:46:44.754Z,10.10
2018-11-20T02:52:14.950Z,9.80
2018-11-20T02:57:41.565Z,9.60
2018-11-20T03:03:11.160Z,9.40
2018-11-20T03:08:29.287Z,9.50
2018-11-20T03:13:51.663Z,9.60
2018-11-20T03:19:13.890Z,9.70
2018-11-20T03:24:39.836Z,9.70
2018-11-20T03:30:27.214Z,9.70
2018-11-20T03:36:00.934Z,9.80
2018-11-20T03:41:23.338Z,9.80
2018-11-20T03:46:47.085Z,9.70
2018-11-20T03:52:19.468Z,9.60
2018-11-20T03:57:58.497Z,9.70
2018-11-20T04:03:21.051Z,9.80
2018-11-20T04:08:43.659Z,10.00
2018-11-20T04:14:05.813Z,10.00
2018-11-20T04:19:28.229Z,10.10
2018-11-20T04:25:10.132Z,10.20
2018-11-20T04:31:02.104Z,10.20
2018-11-20T04:36:34.537Z,10.20
2018-11-20T04:42:08.224Z,10.30
2018-11-20T04:47:31.970Z,10.40
2018-11-20T04:52:46.453Z,10.40
2018-11-20T04:58:12.740Z,10.50
2018-11-20T05:03:51.547Z,10.50
2018-11-20T05:09:24.175Z,10.50
2018-11-20T05:14:58.489Z,10.50
2018-11-20T05:20:17.999Z,10.60
2018-11-20T05:25:50.743Z,10.50
2018-11-20T05:31:20.407Z,10.40
2018-11-20T05:36:59.889Z,10.50
2018-11-20T05:42:35.549Z,10.60
2018-11-20T05:47:56.575Z,10.80
2018-11-20T05:53:20.326Z,10.90
2018-11-20T05:58:44.071Z,10.70
2018-11-20T06:04:07.820Z,10.90
2018-11-20T06:09:43.660Z,11.00
2018-11-20T06:15:10.252Z,11.20
2018-11-20T06:20:39.598Z,11.10
2018-11-20T06:26:01.644Z,11.10
2018-11-20T06:31:24.296Z,11.10
2018-11-20T06:36:44.788Z,10.70
2018-11-20T06:42:07.599Z,10.60
2018-11-20T06:47:43.547Z,10.50
2018-11-20T06:53:13.881Z,10.50
2018-11-20T06:58:34.674Z,10.30
2018-11-20T07:04:13.401Z,10.60
2018-11-20T07:09:27.668Z,10.70
2018-11-20T07:14:42.777Z,10.70
2018-11-20T07:20:23.959Z,10.70
2018-11-20T07:25:43.805Z,10.60
2018-11-20T07:31:09.579Z,10.50
2018-11-20T07:36:31.862Z,10.40
2018-11-20T07:41:55.452Z,10.40
2018-11-20T07:47:27.831Z,10.60
2018-11-20T07:52:50.236Z,11.00
2018-11-20T07:58:12.406Z,11.50
2018-11-20T08:03:35.109Z,11.90
2018-11-20T08:09:04.835Z,12.10
2018-11-20T08:14:31.170Z,12.10
2018-11-20T08:19:53.425Z,12.20
2018-11-20T08:25:20.928Z,12.20
2018-11-20T08:30:43.264Z,12.30
2018-11-20T08:36:08.722Z,12.40
2018-11-20T08:41:30.928Z,12.60
2018-11-20T08:46:55.360Z,12.60
2018-11-20T08:52:18.518Z,12.70
2018-11-20T08:57:46.675Z,12.90
2018-11-20T09:03:20.739Z,13.20
2018-11-20T09:09:05.549Z,13.40
2018-11-20T09:14:38.252Z,13.70
2018-11-20T09:20:22.549Z,13.70
2018-11-20T09:25:44.804Z,13.90
2018-11-20T09:31:14.146Z,14.20
2018-11-20T09:36:43.817Z,14.20
2018-11-20T09:42:00.172Z,14.40
2018-11-20T09:47:22.403Z,14.20
2018-11-20T09:52:53.066Z,14.20
2018-11-20T09:58:15.390Z,14.70
2018-11-20T10:03:29.431Z,15.10
2018-11-20T10:08:51.761Z,15.20
2018-11-20T10:14:21.620Z,15.60
2018-11-20T10:19:45.957Z,16.40
2018-11-20T10:25:24.881Z,16.20
2018-11-20T10:30:44.976Z,16.20
2018-11-20T10:36:18.253Z,16.80
2018-11-20T10:41:45.175Z,16.30
2018-11-20T10:47:08.814Z,15.90
2018-11-20T10:52:35.366Z,15.60
2018-11-20T10:58:10.891Z,15.40
2018-11-20T11:03:33.301Z,15.50
2018-11-20T11:08:46.192Z,15.40
2018-11-20T11:14:08.620Z,15.20
2018-11-20T11:19:31.090Z,15.00
2018-11-20T11:25:03.651Z,15.00
2018-11-20T11:30:46.588Z,15.00
2018-11-20T11:36:27.300Z,14.90
2018-11-20T11:41:49.536Z,14.90
2018-11-20T11:47:13.311Z,15.00
2018-11-20T11:52:35.830Z,15.30
2018-11-20T11:58:18.806Z,15.60
2018-11-20T12:03:53.836Z,15.80
2018-11-20T12:09:16.356Z,16.10
2018-11-20T12:14:42.960Z,16.70
2018-11-20T12:20:12.677Z,16.70
2018-11-20T12:25:42.431Z,16.90
2018-11-20T12:31:04.713Z,16.60
2018-11-20T12:36:40.719Z,16.30
2018-11-20T12:42:08.189Z,16.50
2018-11-20T12:47:32.060Z,16.30
2018-11-20T12:52:54.125Z,16.10
2018-11-20T12:58:16.731Z,16.00
2018-11-20T13:03:40.694Z,16.30
2018-11-20T13:09:13.433Z,17.40
2018-11-20T13:20:08.249Z,17.40
2018-11-20T13:25:23.629Z,17.30
2018-11-20T13:30:46.142Z,17.10
2018-11-20T13:36:08.473Z,17.00
2018-11-20T13:41:41.706Z,17.00
2018-11-20T13:47:04.378Z,17.90
2018-11-20T13:52:34.148Z,19.50
2018-11-20T13:58:05.732Z,21.20
2018-11-20T14:03:29.578Z,19.30
2018-11-20T14:08:53.425Z,17.70
2018-11-20T14:14:32.998Z,17.60
2018-11-20T14:19:56.174Z,16.90
2018-11-20T14:25:19.362Z,16.50
2018-11-20T14:30:54.993Z,16.30
2018-11-20T14:36:21.828Z,16.20
2018-11-20T14:41:39.241Z,16.60
2018-11-20T14:47:12.587Z,19.20
2018-11-20T14:52:39.566Z,18.60
2018-11-20T14:58:02.196Z,19.60
2018-11-20T15:03:44.121Z,19.70
2018-11-20T15:09:06.450Z,19.90
2018-11-20T15:14:28.700Z,19.40
2018-11-20T15:19:55.370Z,18.00
2018-11-20T15:25:29.234Z,17.20
2018-11-20T15:30:50.338Z,17.00
2018-11-20T15:36:14.914Z,16.60
2018-11-20T15:41:38.156Z,16.30
2018-11-20T15:47:00.634Z,16.10
2018-11-20T15:52:16.545Z,15.90
2018-11-20T15:57:43.339Z,15.70
2018-11-20T16:03:07.453Z,15.70
2018-11-20T16:08:29.801Z,15.60
2018-11-20T16:13:52.826Z,15.60
2018-11-20T16:19:25.417Z,15.30
2018-11-20T16:24:55.401Z,14.90
2018-11-20T16:30:26.518Z,14.50
2018-11-20T16:35:49.224Z,14.60
2018-11-20T16:41:13.627Z,14.50
2018-11-20T16:46:37.388Z,14.40
2018-11-20T16:52:06.085Z,14.40
2018-11-20T16:57:32.790Z,14.20
2018-11-20T17:02:55.318Z,14.20
2018-11-20T17:08:07.387Z,13.90
2018-11-20T17:13:34.557Z,13.90
2018-11-20T17:19:13.848Z,13.80
2018-11-20T17:24:43.569Z,13.50
2018-11-20T17:30:10.106Z,13.50
2018-11-20T17:35:32.684Z,13.40
2018-11-20T17:40:55.214Z,13.30
2018-11-20T17:46:18.997Z,13.10
2018-11-20T17:51:40.044Z,12.90
2018-11-20T17:57:12.695Z,12.90
2018-11-20T18:02:35.026Z,13.10
2018-11-20T18:08:01.663Z,13.10
2018-11-20T18:13:31.329Z,13.30
2018-11-20T18:18:52.898Z,13.20
2018-11-20T18:24:25.648Z,13.30
2018-11-20T18:30:01.398Z,13.30
2018-11-20T18:35:34.713Z,13.30
2018-11-20T18:40:56.962Z,13.20
2018-11-20T18:46:19.480Z,13.20
2018-11-20T18:51:43.505Z,13.40
2018-11-20T18:57:16.150Z,13.40
2018-11-20T19:02:39.404Z,13.50
2018-11-20T19:08:08.950Z,13.30
2018-11-20T19:13:44.874Z,13.30
2018-11-20T19:19:07.465Z,13.30
2018-11-20T19:24:33.776Z,13.20
2018-11-20T19:29:56.403Z,12.50
2018-11-20T19:35:32.278Z,11.60
2018-11-20T19:41:02.060Z,11.40
2018-11-20T19:46:19.372Z,11.30
2018-11-20T19:51:42.143Z,11.20
2018-11-20T19:57:08.809Z,11.20
2018-11-20T20:02:36.538Z,11.20
2018-11-20T20:07:54.590Z,11.20
2018-11-20T20:13:28.206Z,11.30
2018-11-20T20:19:01.213Z,11.40
2018-11-20T20:24:23.922Z,11.30
2018-11-20T20:29:59.750Z,11.20
2018-11-20T20:35:22.395Z,11.20
2018-11-20T20:40:55.004Z,11.30
2018-11-20T20:46:17.599Z,11.40
2018-11-20T20:51:43.965Z,11.50
2018-11-20T20:57:20.320Z,11.60
2018-11-20T21:02:47.125Z,11.60
2018-11-20T21:08:10.925Z,11.90
2018-11-20T21:13:49.499Z,12.00
2018-11-20T21:19:07.072Z,11.90
2018-11-20T21:24:19.357Z,11.80
2018-11-20T21:29:44.766Z,11.70
2018-11-20T21:35:06.817Z,11.60
2018-11-20T21:40:28.234Z,11.50
2018-11-20T21:45:50.340Z,11.50
2018-11-20T21:51:14.429Z,11.50
2018-11-20T21:56:41.859Z,11.40
2018-11-20T22:02:12.748Z,11.40
2018-11-20T22:07:42.368Z,11.40
2018-11-20T22:13:05.122Z,11.40
2018-11-20T22:18:32.472Z,11.20
2018-11-20T22:23:54.954Z,11.40
2018-11-20T22:29:24.306Z,11.30
2018-11-20T22:35:00.429Z,11.10
2018-11-20T22:40:23.419Z,11.10
2018-11-20T22:45:43.273Z,11.00
2018-11-20T22:51:12.950Z,10.80
2018-11-20T22:56:51.591Z,10.80
2018-11-20T23:02:21.416Z,10.90
2018-11-20T23:07:47.361Z,10.80
2018-11-20T23:12:54.893Z,10.80
2018-11-20T23:17:59.785Z,10.60
2018-11-20T23:23:04.572Z,10.40
2018-11-20T23:28:09.270Z,10.30
2018-11-20T23:33:14.067Z,10.10
2018-11-20T23:38:18.811Z,9.90
2018-11-20T23:43:23.638Z,9.70
2018-11-20T23:48:41.790Z,9.60
2018-11-20T23:53:45.590Z,9.60
2018-11-20T23:58:50.940Z,9.60
